Time;durP1;ratioP1;P1;durP2;ratioP2;P2;SDS_P1;SDS_P2;PMS_P1;PMS_P2;Temp;Humidity;BMP_temperature;BMP_pressure;BME280_temperature;BME280_humidity;BME280_pressure;Samples;Min_cycle;Max_cycle;Signal;HPM_P1;HPM_P2
2023/01/08 00:01:21;;;;;;;16.40;14.47;;;;;;;1.56;93.69;93263.38;5093460;28;20208;-77
2023/01/08 00:03:46;;;;;;;18.67;15.83;;;;;;;1.49;93.98;93249.75;5090401;28;20196;-76
2023/01/08 00:06:15;;;;;;;18.20;16.37;;;;;;;1.62;94.26;93259.19;5092057;28;20196;-76
2023/01/08 00:08:41;;;;;;;22.40;16.37;;;;;;;1.65;94.00;93259.56;5091341;28;20192;-76
2023/01/08 00:11:06;;;;;;;15.97;14.50;;;;;;;1.58;94.11;93237.44;5093446;28;20212;-76
2023/01/08 00:13:32;;;;;;;13.80;12.50;;;;;;;1.48;94.08;93237.91;5091567;28;20212;-77
2023/01/08 00:16:01;;;;;;;12.10;11.20;;;;;;;1.53;93.84;93256.09;5092333;28;20228;-76
2023/01/08 00:18:27;;;;;;;12.33;11.53;;;;;;;1.40;93.91;93245.88;5091498;28;20195;-77
2023/01/08 00:20:53;;;;;;;10.87;10.30;;;;;;;1.39;94.37;93231.44;5091563;28;20224;-77
2023/01/08 00:23:19;;;;;;;11.37;10.67;;;;;;;1.57;94.02;93244.38;5091044;28;20197;-77
2023/01/08 00:25:45;;;;;;;9.67;9.13;;;;;;;1.52;93.80;93254.53;5092008;28;20217;-77
2023/01/08 00:28:11;;;;;;;10.53;9.90;;;;;;;1.45;94.19;93251.19;5091923;28;20184;-76
2023/01/08 00:30:37;;;;;;;10.77;9.90;;;;;;;1.41;94.75;93256.97;5093702;28;20280;-77
2023/01/08 00:33:02;;;;;;;11.93;11.00;;;;;;;1.30;95.84;93258.41;5092114;28;20252;-77
2023/01/08 00:35:28;;;;;;;10.47;9.77;;;;;;;1.53;94.63;93250.16;5092982;28;20247;-77
2023/01/08 00:37:53;;;;;;;10.50;9.90;;;;;;;1.65;93.97;93251.84;5092680;28;20177;-77
2023/01/08 00:40:19;;;;;;;11.40;10.73;;;;;;;1.65;94.55;93248.47;5092114;28;20242;-77
2023/01/08 00:42:44;;;;;;;10.73;10.13;;;;;;;1.56;94.17;93240.22;5091180;28;20287;-76
2023/01/08 00:45:10;;;;;;;10.70;10.20;;;;;;;1.51;94.14;93237.50;5091527;28;20315;-77
2023/01/08 00:47:36;;;;;;;10.87;10.20;;;;;;;1.57;93.70;93262.38;5093073;28;20192;-76
2023/01/08 00:50:01;;;;;;;11.27;10.40;;;;;;;1.58;93.87;93258.03;5091265;28;20263;-77
2023/01/08 00:52:27;;;;;;;10.97;10.27;;;;;;;1.47;93.55;93259.50;5092686;28;20252;-77
2023/01/08 00:54:52;;;;;;;11.40;10.73;;;;;;;1.52;93.71;93259.66;5092254;28;20254;-77
2023/01/08 00:57:17;;;;;;;10.70;10.00;;;;;;;1.49;93.40;93260.06;5091919;28;20191;-77
2023/01/08 00:59:43;;;;;;;11.10;10.60;;;;;;;1.33;93.21;93241.75;5091278;28;20288;-80
2023/01/08 01:02:08;;;;;;;10.50;9.63;;;;;;;1.37;93.54;93266.88;5091964;28;20252;-76
2023/01/08 01:04:34;;;;;;;10.60;9.80;;;;;;;1.34;94.06;93257.00;5123789;28;20256;-76
2023/01/08 01:06:59;;;;;;;11.57;10.77;;;;;;;1.27;93.72;93233.09;5090895;28;20184;-76
2023/01/08 01:09:26;;;;;;;9.70;9.20;;;;;;;1.29;93.74;93243.19;5092329;28;20217;-77
2023/01/08 01:11:51;;;;;;;11.03;10.43;;;;;;;1.45;93.73;93256.34;5110162;28;20180;-77
2023/01/08 01:14:16;;;;;;;9.33;8.67;;;;;;;1.46;93.50;93252.00;5088258;28;20293;-77
2023/01/08 01:16:42;;;;;;;9.70;9.20;;;;;;;1.39;93.95;93246.88;5093285;28;20188;-76
2023/01/08 01:19:08;;;;;;;10.17;9.67;;;;;;;1.34;94.30;93246.69;5088162;28;20244;-77
2023/01/08 01:21:34;;;;;;;9.90;9.40;;;;;;;1.24;94.58;93246.38;5091221;28;20185;-76
2023/01/08 01:24:02;;;;;;;10.53;10.03;;;;;;;1.26;94.55;93235.88;5090335;28;20195;-76
2023/01/08 01:26:28;;;;;;;9.80;9.40;;;;;;;1.28;94.79;93250.09;5091390;28;20188;-77
2023/01/08 01:28:56;;;;;;;9.73;9.33;;;;;;;1.36;94.48;93249.06;5090981;28;20211;-77
2023/01/08 01:31:22;;;;;;;10.30;9.73;;;;;;;1.36;94.21;93243.91;5090335;28;20185;-76
2023/01/08 01:33:49;;;;;;;10.40;9.90;;;;;;;1.23;94.78;93237.06;5090479;28;20184;-75
2023/01/08 01:36:16;;;;;;;9.90;9.40;;;;;;;1.20;95.13;93245.19;5091910;28;20254;-76
2023/01/08 01:38:45;;;;;;;10.27;9.77;;;;;;;1.04;94.63;93217.41;5090620;28;20216;-76
2023/01/08 01:41:32;;;;;;;10.80;10.30;;;;;;;1.05;95.96;93244.69;5091598;28;20734;-77
2023/01/08 01:44:19;;;;;;;9.90;9.40;;;;;;;1.16;95.11;93238.91;5088238;28;20193;-77
2023/01/08 01:46:46;;;;;;;10.80;10.20;;;;;;;1.01;94.74;93215.25;5069352;28;20189;-77
2023/01/08 01:49:19;;;;;;;11.33;10.63;;;;;;;1.17;94.53;93230.19;5069363;28;20225;-77
2023/01/08 01:51:49;;;;;;;10.37;9.77;;;;;;;1.15;94.50;93234.75;5069402;28;20209;-76
2023/01/08 01:54:16;;;;;;;10.67;9.97;;;;;;;1.12;95.13;93237.72;5070852;28;20293;-77
2023/01/08 01:56:42;;;;;;;10.87;9.67;;;;;;;1.08;95.01;93231.44;5069630;28;20201;-77
2023/01/08 01:59:08;;;;;;;11.60;10.60;;;;;;;1.00;95.38;93213.66;5071266;28;20293;-77
2023/01/08 02:01:33;;;;;;;11.97;11.07;;;;;;;1.15;94.32;93229.59;5071658;28;20190;-77
2023/01/08 02:03:59;;;;;;;11.73;10.97;;;;;;;1.11;94.84;93232.78;5072070;28;20185;-76
2023/01/08 02:06:48;;;;;;;12.47;11.47;;;;;;;1.14;94.78;93224.66;5091175;28;20173;-76
2023/01/08 02:09:42;;;;;;;13.87;12.47;;;;;;;0.93;95.10;93207.78;5089467;28;20222;-77
2023/01/08 02:12:19;;;;;;;13.23;11.93;;;;;;;1.01;95.46;93215.25;5090049;28;20188;-76
2023/01/08 02:15:03;;;;;;;12.60;11.60;;;;;;;0.98;95.93;93214.88;5089441;28;20238;-76
2023/01/08 02:17:52;;;;;;;11.70;10.87;;;;;;;0.89;96.27;93224.59;5089939;28;20181;-75
2023/01/08 02:20:46;;;;;;;11.87;10.80;;;;;;;0.84;97.21;93210.81;5089748;28;20251;-76
2023/01/08 02:23:43;;;;;;;11.47;10.67;;;;;;;0.89;97.00;93211.75;5086292;28;20189;-76
2023/01/08 02:26:16;;;;;;;10.97;10.40;;;;;;;0.88;97.09;93215.31;5087697;28;20246;-75
2023/01/08 02:28:50;;;;;;;11.20;10.50;;;;;;;0.86;96.78;93212.16;5089964;28;20264;-76
2023/01/08 02:31:17;;;;;;;11.93;11.23;;;;;;;0.86;96.39;93204.44;5068276;28;20224;-77
2023/01/08 02:33:43;;;;;;;10.53;9.73;;;;;;;0.89;96.60;93206.59;5070506;28;20196;-77
2023/01/08 02:36:18;;;;;;;11.50;10.83;;;;;;;0.85;96.94;93204.66;5068896;28;20276;-76
2023/01/08 02:39:30;;;;;;;10.73;10.07;;;;;;;0.78;96.64;93183.34;5068971;28;20188;-77
2023/01/08 02:42:04;;;;;;;11.53;10.63;;;;;;;1.00;96.09;93198.25;5049089;28;20220;-76
2023/01/08 02:44:36;;;;;;;11.90;11.00;;;;;;;0.93;96.65;93197.50;5088910;28;20239;-77
2023/01/08 02:47:05;;;;;;;11.33;10.37;;;;;;;0.85;96.98;93197.75;5089178;28;20199;-76
2023/01/08 02:49:36;;;;;;;10.60;9.97;;;;;;;0.76;96.85;93193.03;5089347;28;20228;-77
2023/01/08 02:52:03;;;;;;;11.33;10.63;;;;;;;0.63;97.51;93175.91;5089185;28;20188;-76
2023/01/08 02:54:33;;;;;;;11.83;10.73;;;;;;;0.67;98.07;93184.78;5088831;28;20240;-77
2023/01/08 02:57:04;;;;;;;13.37;12.20;;;;;;;0.66;97.70;93174.69;5087285;28;20184;-77
2023/01/08 02:59:32;;;;;;;12.50;11.50;;;;;;;0.81;97.97;93183.72;5090964;28;20232;-77
2023/01/08 03:02:00;;;;;;;12.27;11.47;;;;;;;0.78;97.29;93181.56;5089143;28;20192;-77
2023/01/08 03:04:29;;;;;;;11.40;10.63;;;;;;;0.81;97.65;93198.38;5090286;28;20243;-75
2023/01/08 03:06:56;;;;;;;11.87;10.97;;;;;;;0.81;97.65;93188.09;5088483;28;20238;-77
2023/01/08 03:09:22;;;;;;;11.87;11.17;;;;;;;0.74;97.91;93187.31;5089523;28;20543;-77
2023/01/08 03:12:01;;;;;;;11.80;11.10;;;;;;;0.85;97.50;93200.31;5088903;28;20211;-77
2023/01/08 03:14:49;;;;;;;11.53;10.93;;;;;;;0.83;97.52;93202.28;5089963;28;20707;-76
2023/01/08 03:17:43;;;;;;;9.70;9.10;;;;;;;0.78;97.95;93204.69;5089156;28;20200;-74
2023/01/08 03:20:14;;;;;;;11.17;10.37;;;;;;;0.82;97.99;93205.06;5087245;28;20228;-74
2023/01/08 03:22:43;;;;;;;14.30;11.83;;;;;;;0.76;98.09;93203.31;5104093;28;20188;-74
2023/01/08 03:25:09;;;;;;;15.10;13.57;;;;;;;0.67;98.49;93207.13;5103780;28;20296;-74
2023/01/08 03:27:41;;;;;;;15.90;13.80;;;;;;;0.65;98.60;93209.91;5090479;28;20188;-75
2023/01/08 03:30:09;;;;;;;13.23;11.73;;;;;;;0.66;98.61;93206.31;5089556;28;20232;-74
2023/01/08 03:32:38;;;;;;;13.67;12.43;;;;;;;0.84;98.50;93203.84;5088878;28;20177;-74
2023/01/08 03:35:07;;;;;;;11.80;10.80;;;;;;;0.81;97.93;93201.69;5089396;28;20244;-74
2023/01/08 03:37:37;;;;;;;12.40;11.60;;;;;;;0.74;97.90;93198.38;5088208;28;20181;-74
2023/01/08 03:40:08;;;;;;;12.13;11.33;;;;;;;0.82;97.69;93197.38;5088726;28;20224;-75
2023/01/08 03:42:33;;;;;;;13.07;12.17;;;;;;;0.62;97.11;93174.34;5088603;28;20181;-72
2023/01/08 03:44:59;;;;;;;11.60;10.80;;;;;;;0.79;97.88;93185.72;5088957;28;20270;-74
2023/01/08 03:47:28;;;;;;;11.33;10.63;;;;;;;0.68;97.86;93191.50;5088787;28;20211;-74
2023/01/08 03:49:55;;;;;;;11.53;10.67;;;;;;;0.56;97.79;93175.13;5087692;28;20240;-74
2023/01/08 03:52:27;;;;;;;10.20;9.40;;;;;;;0.64;98.04;93202.41;5087158;28;20204;-74
2023/01/08 03:54:53;;;;;;;10.50;9.90;;;;;;;0.64;97.51;93192.13;5088610;28;20244;-74
2023/01/08 03:57:19;;;;;;;11.40;10.80;;;;;;;0.52;97.54;93171.41;5089552;28;20200;-74
2023/01/08 03:59:44;;;;;;;11.53;10.73;;;;;;;0.72;97.32;93197.78;5092125;28;20232;-74
2023/01/08 04:02:10;;;;;;;12.17;11.30;;;;;;;0.62;96.91;93196.66;5093308;28;20193;-74
2023/01/08 04:04:35;;;;;;;12.17;11.17;;;;;;;0.64;97.05;93192.88;5090605;28;20237;-74
2023/01/08 04:07:00;;;;;;;11.57;10.67;;;;;;;0.58;97.26;93177.50;5091702;28;20195;-74
2023/01/08 04:09:26;;;;;;;11.10;10.43;;;;;;;0.74;97.26;93190.69;5092480;28;20220;-75
2023/01/08 04:11:51;;;;;;;11.27;10.40;;;;;;;0.50;97.10;93177.75;5091738;28;20752;-75
2023/01/08 04:14:17;;;;;;;12.00;11.20;;;;;;;0.60;97.74;93196.88;5091820;28;20228;-74
2023/01/08 04:16:43;;;;;;;11.23;10.43;;;;;;;0.61;97.56;93201.00;5089484;28;20177;-74
2023/01/08 04:19:10;;;;;;;12.10;11.10;;;;;;;0.74;97.63;93200.16;5091724;28;20227;-74
2023/01/08 04:21:35;;;;;;;11.60;10.80;;;;;;;0.66;97.48;93197.81;5092928;28;20227;-73
2023/01/08 04:24:01;;;;;;;11.60;11.00;;;;;;;0.57;97.80;93199.84;5091909;28;20177;-74
2023/01/08 04:26:26;;;;;;;12.40;11.40;;;;;;;0.56;97.11;93175.13;5092263;28;20222;-74
2023/01/08 04:28:51;;;;;;;12.20;11.40;;;;;;;0.52;97.14;93184.25;5090294;28;20185;-74
2023/01/08 04:31:17;;;;;;;10.87;10.23;;;;;;;0.61;97.09;93201.00;5091705;28;20184;-74
2023/01/08 04:33:42;;;;;;;11.07;10.47;;;;;;;0.41;98.47;93200.28;5092893;28;20239;-75
2023/01/08 04:36:08;;;;;;;10.07;9.57;;;;;;;0.29;99.40;93201.13;5091771;28;20251;-74
2023/01/08 04:38:34;;;;;;;9.10;8.63;;;;;;;0.29;99.67;93188.28;5106580;28;20227;-74
2023/01/08 04:41:00;;;;;;;10.53;10.03;;;;;;;0.30;100.00;93205.25;5091952;28;20247;-74
2023/01/08 04:43:27;;;;;;;10.83;10.33;;;;;;;0.33;100.00;93205.66;5091474;28;20201;-74
2023/01/08 04:45:57;;;;;;;10.17;9.70;;;;;;;0.42;100.00;93207.00;5090233;28;20204;-74
2023/01/08 04:48:22;;;;;;;10.60;9.97;;;;;;;0.29;100.00;93190.84;5091017;28;20199;-74
2023/01/08 04:50:48;;;;;;;11.17;10.47;;;;;;;0.36;100.00;93194.97;5090467;28;20233;-75
2023/01/08 04:53:13;;;;;;;10.33;9.63;;;;;;;0.21;100.00;93184.16;5090609;28;20220;-75
2023/01/08 04:55:38;;;;;;;11.50;10.80;;;;;;;0.29;100.00;93194.22;5091111;28;20263;-75
2023/01/08 04:58:04;;;;;;;10.83;10.23;;;;;;;0.36;99.77;93200.09;5091441;28;20193;-74
2023/01/08 05:00:29;;;;;;;12.23;11.43;;;;;;;0.26;99.61;93189.50;5091834;28;20242;-74
2023/01/08 05:02:55;;;;;;;11.80;10.90;;;;;;;0.25;99.80;93187.13;5091394;28;20651;-74
2023/01/08 05:05:20;;;;;;;11.37;10.57;;;;;;;0.20;99.98;93195.44;5092361;28;20226;-74
2023/01/08 05:07:45;;;;;;;12.67;11.77;;;;;;;0.11;100.00;93191.47;5093001;28;20189;-75
2023/01/08 05:10:11;;;;;;;13.30;12.23;;;;;;;0.34;100.00;93219.28;5090603;28;20228;-74
2023/01/08 05:12:36;;;;;;;14.07;12.67;;;;;;;0.23;100.00;93204.50;5090031;28;20192;-74
2023/01/08 05:15:01;;;;;;;15.83;14.37;;;;;;;0.28;100.00;93204.69;5090751;28;20304;-73
2023/01/08 05:17:27;;;;;;;15.40;14.10;;;;;;;0.27;100.00;93195.38;5091116;28;20192;-74
2023/01/08 05:19:52;;;;;;;12.97;11.90;;;;;;;0.30;100.00;93200.13;5091206;28;20242;-74
2023/01/08 05:22:17;;;;;;;13.50;12.37;;;;;;;0.17;100.00;93188.13;5091705;28;20184;-74
2023/01/08 05:24:43;;;;;;;13.07;12.03;;;;;;;0.24;100.00;93209.44;5092371;28;20251;-74
2023/01/08 05:27:08;;;;;;;12.80;12.07;;;;;;;0.38;100.00;93210.97;5091268;28;20181;-74
2023/01/08 05:29:34;;;;;;;11.63;10.87;;;;;;;0.30;100.00;93208.63;5092333;28;21078;-78
2023/01/08 05:31:59;;;;;;;11.70;10.80;;;;;;;0.25;100.00;93205.84;5089743;28;20189;-76
2023/01/08 05:34:24;;;;;;;12.03;11.17;;;;;;;0.24;100.00;93204.28;5085379;28;20220;-77
2023/01/08 05:36:50;;;;;;;11.97;11.17;;;;;;;0.23;100.00;93205.28;5088833;28;20189;-76
2023/01/08 05:39:15;;;;;;;12.73;11.70;;;;;;;0.05;100.00;93184.59;5090308;28;20258;-76
2023/01/08 05:41:40;;;;;;;13.40;12.20;;;;;;;0.23;100.00;93209.63;5088139;28;20201;-76
2023/01/08 05:44:06;;;;;;;12.73;11.73;;;;;;;0.45;100.00;93216.84;5089418;28;20255;-75
2023/01/08 05:46:31;;;;;;;11.60;10.60;;;;;;;0.42;99.35;93219.06;5090250;28;20208;-75
2023/01/08 05:48:57;;;;;;;12.63;11.87;;;;;;;0.27;99.74;93210.78;5087906;28;20189;-75
2023/01/08 05:51:22;;;;;;;11.90;11.07;;;;;;;0.20;100.00;93207.47;5088881;28;20244;-76
2023/01/08 05:53:47;;;;;;;11.07;10.17;;;;;;;0.32;100.00;93209.22;5088741;28;20207;-77
2023/01/08 05:56:13;;;;;;;11.63;10.77;;;;;;;0.16;100.00;93186.53;5088758;28;20177;-76
2023/01/08 05:58:38;;;;;;;12.23;11.43;;;;;;;0.16;100.00;93193.47;5092009;28;20188;-76
2023/01/08 06:01:09;;;;;;;12.87;11.60;;;;;;;0.27;100.00;93203.88;5088283;28;20237;-76
2023/01/08 06:03:35;;;;;;;13.47;12.33;;;;;;;0.35;100.00;93213.94;5089398;28;20256;-76
2023/01/08 06:06:02;;;;;;;14.30;13.30;;;;;;;0.29;100.00;93209.63;5088753;28;20235;-76
2023/01/08 06:08:29;;;;;;;13.13;12.07;;;;;;;0.31;100.00;93211.97;5089784;28;20236;-76
2023/01/08 06:10:58;;;;;;;14.40;13.20;;;;;;;0.31;100.00;93207.66;5087524;28;20250;-76
2023/01/08 06:13:24;;;;;;;12.87;11.83;;;;;;;0.31;100.00;93217.13;5086439;28;20184;-75
2023/01/08 06:15:49;;;;;;;11.50;10.73;;;;;;;0.39;100.00;93219.47;5088091;28;20228;-78
2023/01/08 06:18:14;;;;;;;11.87;11.07;;;;;;;0.35;100.00;93203.66;5090290;28;20248;-77
2023/01/08 06:20:40;;;;;;;11.27;10.57;;;;;;;0.50;99.74;93216.28;5087881;28;20236;-78
2023/01/08 06:23:05;;;;;;;11.13;10.43;;;;;;;0.39;99.80;93204.84;5088945;28;20218;-77
2023/01/08 06:25:30;;;;;;;11.60;10.90;;;;;;;0.52;99.74;93217.63;5089155;28;20228;-77
2023/01/08 06:27:56;;;;;;;13.50;12.50;;;;;;;0.48;99.44;93207.97;5089219;28;20220;-78
2023/01/08 06:30:21;;;;;;;13.40;12.23;;;;;;;0.40;100.00;93201.28;5088920;28;20216;-79
2023/01/08 06:32:46;;;;;;;12.53;11.60;;;;;;;0.43;99.54;93190.63;5090523;28;20192;-76
2023/01/08 06:35:12;;;;;;;12.17;11.30;;;;;;;0.56;99.40;93220.59;5087669;28;20220;-79
2023/01/08 06:37:37;;;;;;;12.33;11.33;;;;;;;0.67;99.29;93230.25;5090100;28;20193;-79
2023/01/08 06:40:03;;;;;;;10.70;9.80;;;;;;;0.67;99.50;93233.59;5087430;28;20217;-83
2023/01/08 06:42:28;;;;;;;11.47;10.43;;;;;;;0.69;99.34;93238.50;5087196;28;20192;-82
2023/01/08 06:44:54;;;;;;;13.20;12.17;;;;;;;0.59;99.28;93231.22;5088265;28;20220;-81
2023/01/08 06:47:19;;;;;;;12.67;11.70;;;;;;;0.66;98.99;93244.06;5087748;28;20184;-76
2023/01/08 06:49:45;;;;;;;11.77;11.07;;;;;;;0.66;99.10;93224.31;5089273;28;20276;-81
2023/01/08 06:52:10;;;;;;;15.30;13.77;;;;;;;0.80;99.33;93233.53;5089950;28;20292;-82
2023/01/08 06:54:35;;;;;;;15.70;14.30;;;;;;;0.58;99.48;93180.06;5088199;28;20258;-79
2023/01/08 06:57:01;;;;;;;14.80;13.53;;;;;;;0.94;98.89;93224.78;5086089;28;20192;-79
2023/01/08 06:59:26;;;;;;;17.37;15.80;;;;;;;0.81;99.20;93213.78;5088215;28;20221;-79
2023/01/08 07:01:52;;;;;;;17.13;14.70;;;;;;;1.01;98.87;93238.38;5089292;28;20261;-77
2023/01/08 07:04:18;;;;;;;16.97;15.43;;;;;;;1.06;99.46;93240.34;5088170;28;20343;-76
2023/01/08 07:06:43;;;;;;;16.97;15.27;;;;;;;1.15;98.84;93239.88;5086017;28;20185;-76
2023/01/08 07:09:13;;;;;;;17.83;14.77;;;;;;;1.10;99.51;93239.72;5084448;28;20224;-76
2023/01/08 07:11:39;;;;;;;17.33;15.60;;;;;;;1.18;99.44;93243.84;5086800;28;20185;-80
2023/01/08 07:14:04;;;;;;;14.67;13.20;;;;;;;1.22;99.53;93257.84;5088564;28;20237;-73
2023/01/08 07:16:30;;;;;;;15.07;13.73;;;;;;;1.30;98.48;93250.69;5088839;28;20192;-73
2023/01/08 07:18:56;;;;;;;15.50;14.03;;;;;;;1.54;97.76;93257.66;5089006;28;20200;-73
2023/01/08 07:21:22;;;;;;;17.57;15.77;;;;;;;1.50;97.03;93235.13;5089889;28;20185;-74
2023/01/08 07:23:49;;;;;;;20.67;17.23;;;;;;;1.65;96.94;93262.13;5088765;28;20177;-74
2023/01/08 07:26:15;;;;;;;24.50;20.03;;;;;;;1.69;97.10;93257.38;5088873;28;20257;-75
2023/01/08 07:28:41;;;;;;;21.27;19.00;;;;;;;1.65;97.33;93249.25;5089866;28;20192;-78
2023/01/08 07:31:07;;;;;;;23.20;19.40;;;;;;;2.06;96.30;93256.47;5088140;28;20224;-74
2023/01/08 07:33:33;;;;;;;25.60;19.80;;;;;;;2.08;95.17;93266.56;5092072;28;20185;-83
2023/01/08 07:35:58;;;;;;;39.30;23.57;;;;;;;2.28;94.62;93264.59;5092710;28;20220;-77
2023/01/08 07:38:24;;;;;;;31.90;22.43;;;;;;;2.30;94.26;93262.59;5092388;28;20183;-76
2023/01/08 07:40:49;;;;;;;37.80;23.87;;;;;;;2.27;94.64;93260.47;5092564;28;20225;-79
2023/01/08 07:43:15;;;;;;;30.27;22.70;;;;;;;2.11;95.68;93248.91;5092281;28;20200;-76
2023/01/08 07:45:40;;;;;;;30.80;23.27;;;;;;;2.26;96.91;93262.25;5092149;28;20239;-80
2023/01/08 07:48:06;;;;;;;35.33;23.03;;;;;;;2.50;96.06;93258.84;5093918;28;20327;-74
2023/01/08 07:50:32;;;;;;;33.13;23.67;;;;;;;2.40;97.06;93278.34;5093277;28;20315;-76
2023/01/08 07:52:59;;;;;;;30.37;24.20;;;;;;;2.38;97.08;93270.06;5092538;28;20200;-77
2023/01/08 07:55:25;;;;;;;34.13;24.57;;;;;;;2.29;98.37;93273.91;5092000;28;20246;-77
2023/01/08 07:57:50;;;;;;;31.17;23.43;;;;;;;2.55;100.00;93265.94;5092345;28;20192;-82
2023/01/08 08:00:16;;;;;;;37.70;23.53;;;;;;;2.34;99.85;93256.03;5092690;28;20235;-79
2023/01/08 08:02:42;;;;;;;38.10;24.33;;;;;;;2.47;98.22;93277.31;5092711;28;20198;-77
2023/01/08 08:05:07;;;;;;;43.97;28.33;;;;;;;2.68;95.45;93270.94;5091928;28;20323;-78
2023/01/08 08:07:33;;;;;;;33.90;26.67;;;;;;;2.71;94.38;93276.47;5094238;28;20176;-78
2023/01/08 08:09:58;;;;;;;33.87;24.80;;;;;;;2.52;94.59;93271.50;5091611;28;20229;-79
2023/01/08 08:12:24;;;;;;;34.53;26.20;;;;;;;2.69;94.24;93281.03;5093266;28;20278;-79
2023/01/08 08:14:49;;;;;;;34.50;24.43;;;;;;;2.70;94.77;93276.66;5089804;28;20967;-79
2023/01/08 08:17:15;;;;;;;41.40;26.53;;;;;;;2.73;94.01;93282.19;5091304;28;20208;-79
2023/01/08 08:19:42;;;;;;;43.67;29.00;;;;;;;2.84;93.92;93281.47;5091675;28;20841;-77
2023/01/08 08:22:08;;;;;;;57.13;31.80;;;;;;;2.87;93.17;93285.41;5092499;28;20188;-78
2023/01/08 08:24:33;;;;;;;66.27;33.27;;;;;;;2.89;93.69;93278.25;5091060;28;20263;-79
2023/01/08 08:26:59;;;;;;;52.43;33.00;;;;;;;3.07;91.91;93260.97;5092760;28;20188;-78
2023/01/08 08:29:24;;;;;;;48.10;31.47;;;;;;;3.01;91.90;93284.25;5091677;28;20236;-78
2023/01/08 08:31:49;;;;;;;54.07;31.50;;;;;;;3.21;92.39;93287.38;5094168;28;20226;-79
2023/01/08 08:34:15;;;;;;;42.70;29.43;;;;;;;3.17;91.98;93271.59;5092868;28;20248;-78
2023/01/08 08:36:40;;;;;;;46.57;29.90;;;;;;;3.33;91.60;93259.06;5092152;28;20192;-79
2023/01/08 08:39:06;;;;;;;43.17;28.90;;;;;;;3.57;90.68;93282.16;5091223;28;20223;-79
2023/01/08 08:41:31;;;;;;;37.77;26.90;;;;;;;3.63;89.66;93277.94;5091495;28;20189;-78
2023/01/08 08:43:56;;;;;;;42.70;28.33;;;;;;;3.72;90.08;93287.69;5090662;28;20225;-78
2023/01/08 08:46:24;;;;;;;38.67;27.13;;;;;;;3.67;89.87;93274.69;5091247;28;20263;-78
2023/01/08 08:48:49;;;;;;;30.87;25.27;;;;;;;3.76;89.53;93286.28;5092084;28;20176;-79
2023/01/08 08:51:14;;;;;;;41.17;26.53;;;;;;;3.92;89.11;93283.03;5091710;28;21182;-79
2023/01/08 08:53:40;;;;;;;43.07;26.60;;;;;;;3.89;88.29;93283.47;5091852;28;20269;-78
2023/01/08 08:56:06;;;;;;;47.37;28.30;;;;;;;3.93;88.06;93286.41;5090747;28;20229;-78
2023/01/08 08:58:32;;;;;;;47.27;26.80;;;;;;;3.93;88.24;93286.41;5091612;28;20240;-79
2023/01/08 09:01:02;;;;;;;36.03;24.43;;;;;;;4.16;86.45;93271.75;5091078;28;20229;-79
2023/01/08 09:03:28;;;;;;;41.23;26.60;;;;;;;4.22;86.07;93291.53;5092671;28;20181;-79
2023/01/08 09:05:54;;;;;;;44.10;26.10;;;;;;;4.08;86.92;93291.94;5090777;28;20971;-79
2023/01/08 09:08:19;;;;;;;38.13;26.00;;;;;;;4.08;87.67;93282.41;5091591;28;20181;-79
2023/01/08 09:10:44;;;;;;;28.33;22.93;;;;;;;3.99;87.21;93264.84;5091843;28;20224;-79
2023/01/08 09:13:10;;;;;;;25.67;19.97;;;;;;;4.25;86.63;93285.91;5092920;28;20226;-79
2023/01/08 09:15:36;;;;;;;23.97;19.67;;;;;;;4.39;84.54;93284.69;5090682;28;20243;-78
2023/01/08 09:18:02;;;;;;;26.83;19.33;;;;;;;4.18;85.52;93282.66;5093595;28;20197;-79
2023/01/08 09:20:28;;;;;;;23.50;17.80;;;;;;;4.41;85.21;93284.44;5091178;28;20234;-79
2023/01/08 09:22:53;;;;;;;20.30;18.13;;;;;;;4.45;83.39;93270.09;5090313;28;21221;-79
2023/01/08 09:25:19;;;;;;;18.00;16.30;;;;;;;4.49;83.58;93282.34;5090049;28;20238;-78
2023/01/08 09:27:45;;;;;;;22.70;16.90;;;;;;;4.68;82.95;93278.63;5091180;28;20177;-78
2023/01/08 09:30:11;;;;;;;19.70;16.17;;;;;;;4.89;81.76;93272.84;5090269;28;20239;-79
2023/01/08 09:32:37;;;;;;;23.77;17.60;;;;;;;5.01;80.52;93261.69;5091821;28;20184;-78
2023/01/08 09:35:03;;;;;;;20.27;17.47;;;;;;;4.95;80.21;93253.81;5090635;28;20239;-79
2023/01/08 09:37:29;;;;;;;24.70;17.37;;;;;;;4.91;79.71;93244.16;5091297;28;20216;-78
2023/01/08 09:39:54;;;;;;;23.83;17.63;;;;;;;4.95;80.08;93253.81;5089160;28;20224;-79
2023/01/08 09:42:24;;;;;;;21.97;17.27;;;;;;;4.80;80.18;93245.75;5090581;28;20215;-79
2023/01/08 09:44:52;;;;;;;19.83;17.77;;;;;;;4.94;79.91;93254.06;5089468;28;20236;-79
2023/01/08 09:47:31;;;;;;;17.93;16.03;;;;;;;4.86;80.81;93251.81;5089868;28;20279;-81
2023/01/08 09:50:02;;;;;;;28.10;18.23;;;;;;;4.88;81.05;93240.25;5089723;28;20247;-79
2023/01/08 09:52:30;;;;;;;18.63;15.67;;;;;;;4.95;80.56;93243.47;5089289;28;20197;-75
2023/01/08 09:54:55;;;;;;;19.03;16.50;;;;;;;5.18;79.11;93218.56;5089637;28;20224;-76
2023/01/08 09:57:21;;;;;;;17.97;15.20;;;;;;;4.93;78.59;93167.13;5091075;28;20255;-76
2023/01/08 09:59:48;;;;;;;19.07;17.03;;;;;;;5.46;78.15;93227.13;5089865;28;20220;-76
2023/01/08 10:02:20;;;;;;;23.17;18.37;;;;;;;5.28;78.30;93208.38;5091088;28;20216;-76
2023/01/08 10:04:50;;;;;;;26.17;18.20;;;;;;;5.45;78.61;93224.75;5091435;28;20263;-76
2023/01/08 10:07:25;;;;;;;21.67;17.97;;;;;;;5.31;79.35;93226.06;5089757;28;20192;-76
2023/01/08 10:09:51;;;;;;;22.40;18.70;;;;;;;5.25;78.98;93206.25;5089090;28;20224;-76
2023/01/08 10:12:25;;;;;;;21.33;17.80;;;;;;;5.39;78.86;93212.72;5090805;28;20193;-76
2023/01/08 10:14:51;;;;;;;23.17;18.20;;;;;;;5.35;79.84;93215.00;5088616;28;20220;-78
2023/01/08 10:17:27;;;;;;;20.90;18.57;;;;;;;5.68;77.43;93201.34;5090281;28;20227;-76
2023/01/08 10:19:53;;;;;;;26.70;19.03;;;;;;;5.79;76.80;93216.78;5090039;28;20250;-76
2023/01/08 10:22:22;;;;;;;19.83;17.83;;;;;;;5.61;77.31;93211.84;5089229;28;20193;-76
2023/01/08 10:24:47;;;;;;;25.37;18.80;;;;;;;5.67;77.21;93202.34;5090319;28;20263;-76
2023/01/08 10:27:14;;;;;;;24.20;19.27;;;;;;;5.83;77.57;93206.78;5090007;28;20189;-76
2023/01/08 10:29:40;;;;;;;24.57;18.83;;;;;;;5.72;77.01;93195.44;5087904;28;20240;-76
2023/01/08 10:32:14;;;;;;;21.13;18.47;;;;;;;5.98;76.15;93196.66;5089832;28;20184;-76
2023/01/08 10:34:51;;;;;;;24.13;18.30;;;;;;;5.96;76.38;93190.94;5089926;28;20228;-76
2023/01/08 10:37:30;;;;;;;23.70;20.13;;;;;;;6.10;76.07;93176.63;5089638;28;20188;-76
2023/01/08 10:40:07;;;;;;;21.67;19.37;;;;;;;6.05;76.81;93189.50;5091499;28;20247;-76
2023/01/08 10:42:35;;;;;;;25.03;19.83;;;;;;;6.07;76.54;93193.44;5086671;28;20195;-76
2023/01/08 10:45:12;;;;;;;22.10;18.77;;;;;;;5.73;77.24;93139.22;5090364;28;20235;-76
2023/01/08 10:47:38;;;;;;;22.20;19.90;;;;;;;6.37;75.51;93177.53;5088033;28;20176;-76
2023/01/08 10:50:17;;;;;;;26.30;19.53;;;;;;;6.07;76.87;93166.75;5089368;28;20273;-76
2023/01/08 10:52:52;;;;;;;22.13;19.23;;;;;;;6.51;74.27;93153.63;5090661;28;20192;-76
2023/01/08 10:55:24;;;;;;;24.37;18.97;;;;;;;6.65;74.17;93172.19;5088964;28;20258;-76
2023/01/08 10:58:16;;;;;;;25.63;19.27;;;;;;;6.52;74.63;93159.59;5088235;28;20192;-76
2023/01/08 11:00:41;;;;;;;24.33;19.83;;;;;;;6.51;74.63;93160.59;5085874;28;20233;-76
2023/01/08 11:03:27;;;;;;;28.13;21.43;;;;;;;6.28;74.94;93127.09;5090196;28;20192;-76
2023/01/08 11:05:53;;;;;;;25.70;20.33;;;;;;;6.21;75.96;93142.81;5087391;28;20235;-76
2023/01/08 11:08:20;;;;;;;24.43;19.40;;;;;;;6.28;76.28;93147.84;5088918;28;20196;-76
2023/01/08 11:11:00;;;;;;;24.63;20.27;;;;;;;6.49;76.95;93162.63;5088173;28;20228;-76
2023/01/08 11:13:27;;;;;;;24.60;19.87;;;;;;;6.50;75.88;93146.88;5089717;28;20211;-76
2023/01/08 11:16:03;;;;;;;23.80;19.60;;;;;;;6.60;74.58;93153.19;5089132;28;20220;-76
2023/01/08 11:18:29;;;;;;;23.63;20.33;;;;;;;6.55;75.10;93138.38;5089201;28;20192;-76
2023/01/08 11:21:09;;;;;;;22.43;19.63;;;;;;;6.71;74.00;93150.47;5088998;28;20296;-76
2023/01/08 11:23:35;;;;;;;25.83;19.60;;;;;;;6.64;74.62;93147.28;5089890;28;20177;-76
2023/01/08 11:26:20;;;;;;;23.40;20.90;;;;;;;6.66;75.39;93150.44;5089130;28;20248;-76
2023/01/08 11:29:11;;;;;;;24.60;20.20;;;;;;;6.61;74.82;93147.78;5088155;28;20200;-76